Assonet, Massachusetts
Current Conditions -  °F | °C
As of 11:38 AM on Sunday 21 Dec 2014 (Local Time) from KTAN Reporting Station
Light Snow Light Snow  
Wind Chill: 29°   Ceiling: 500
Heat Index: 34°   Visibility: 1.5mi
Dew Point: 32°   Wind: 6mph
Humidity: 92%   Direction: 360°N
Pressure: 30.29"   Gusts: NA
Location:  41.8°N, 71.07°W
Report Text: KTAN 211638Z AUTO 36005KT 1 1/2SM -SN BR OVC005 01/00 A3029 RMK AO2 CIG 003V008 P0002 T00110000
Loading
Personal Weather Stations






























Interactive Weather Map New forecast layout! Learn more

10-Day Weather Forecast

Advertisements
Track Severe Weather on mobile